sensor_id;sensor_type;location;lat;lon;timestamp;P1;durP1;ratioP1;P2;durP2;ratioP2
14342;SDS011;7255;53.596;9.960;2023-02-23T00:00:11;35.42;;;20.10;;
14342;SDS011;7255;53.596;9.960;2023-02-23T00:02:46;28.77;;;18.37;;
14342;SDS011;7255;53.596;9.960;2023-02-23T00:05:13;32.15;;;18.67;;
14342;SDS011;7255;53.596;9.960;2023-02-23T00:07:40;36.92;;;19.20;;
14342;SDS011;7255;53.596;9.960;2023-02-23T00:10:09;31.17;;;18.27;;
14342;SDS011;7255;53.596;9.960;2023-02-23T00:12:36;37.20;;;19.33;;
14342;SDS011;7255;53.596;9.960;2023-02-23T00:15:03;31.30;;;19.42;;
14342;SDS011;7255;53.596;9.960;2023-02-23T00:17:31;33.30;;;18.52;;
14342;SDS011;7255;53.596;9.960;2023-02-23T00:20:01;38.33;;;20.20;;
14342;SDS011;7255;53.596;9.960;2023-02-23T00:22:35;32.30;;;18.25;;
14342;SDS011;7255;53.596;9.960;2023-02-23T00:25:01;31.52;;;18.73;;
14342;SDS011;7255;53.596;9.960;2023-02-23T00:27:31;33.55;;;18.25;;
14342;SDS011;7255;53.596;9.960;2023-02-23T00:29:58;33.65;;;19.10;;
14342;SDS011;7255;53.596;9.960;2023-02-23T00:32:24;32.15;;;18.33;;
14342;SDS011;7255;53.596;9.960;2023-02-23T00:34:50;34.70;;;18.77;;
14342;SDS011;7255;53.596;9.960;2023-02-23T00:37:19;35.90;;;18.57;;
14342;SDS011;7255;53.596;9.960;2023-02-23T00:39:46;37.53;;;19.90;;
14342;SDS011;7255;53.596;9.960;2023-02-23T00:42:13;33.78;;;19.42;;
14342;SDS011;7255;53.596;9.960;2023-02-23T00:44:39;34.03;;;19.70;;
14342;SDS011;7255;53.596;9.960;2023-02-23T00:47:06;37.92;;;20.33;;
14342;SDS011;7255;53.596;9.960;2023-02-23T00:49:32;42.70;;;21.37;;
14342;SDS011;7255;53.596;9.960;2023-02-23T00:51:59;37.50;;;20.70;;
14342;SDS011;7255;53.596;9.960;2023-02-23T00:54:26;35.08;;;20.37;;
14342;SDS011;7255;53.596;9.960;2023-02-23T00:56:53;38.55;;;20.58;;
14342;SDS011;7255;53.596;9.960;2023-02-23T00:59:19;39.15;;;20.95;;
14342;SDS011;7255;53.596;9.960;2023-02-23T01:01:46;40.33;;;21.60;;
14342;SDS011;7255;53.596;9.960;2023-02-23T01:04:13;44.70;;;20.73;;
14342;SDS011;7255;53.596;9.960;2023-02-23T01:06:40;38.90;;;19.52;;
14342;SDS011;7255;53.596;9.960;2023-02-23T01:09:08;40.25;;;20.83;;
14342;SDS011;7255;53.596;9.960;2023-02-23T01:11:38;38.90;;;20.52;;
14342;SDS011;7255;53.596;9.960;2023-02-23T01:14:06;37.97;;;21.03;;
14342;SDS011;7255;53.596;9.960;2023-02-23T01:16:33;42.08;;;21.25;;
14342;SDS011;7255;53.596;9.960;2023-02-23T01:19:02;38.33;;;21.12;;
14342;SDS011;7255;53.596;9.960;2023-02-23T01:21:30;37.63;;;21.50;;
14342;SDS011;7255;53.596;9.960;2023-02-23T01:23:58;42.20;;;20.98;;
14342;SDS011;7255;53.596;9.960;2023-02-23T01:26:26;42.10;;;21.40;;
14342;SDS011;7255;53.596;9.960;2023-02-23T01:28:56;36.67;;;22.08;;
14342;SDS011;7255;53.596;9.960;2023-02-23T01:31:24;42.78;;;21.00;;
14342;SDS011;7255;53.596;9.960;2023-02-23T01:33:52;39.97;;;21.75;;
14342;SDS011;7255;53.596;9.960;2023-02-23T01:36:19;39.72;;;21.35;;
14342;SDS011;7255;53.596;9.960;2023-02-23T01:38:46;37.50;;;20.40;;
14342;SDS011;7255;53.596;9.960;2023-02-23T01:41:13;42.65;;;22.33;;
14342;SDS011;7255;53.596;9.960;2023-02-23T01:43:53;38.17;;;21.15;;
14342;SDS011;7255;53.596;9.960;2023-02-23T01:46:21;37.38;;;20.08;;
14342;SDS011;7255;53.596;9.960;2023-02-23T01:48:48;40.42;;;21.08;;
14342;SDS011;7255;53.596;9.960;2023-02-23T01:51:15;43.97;;;22.87;;
14342;SDS011;7255;53.596;9.960;2023-02-23T01:53:47;45.47;;;21.58;;
14342;SDS011;7255;53.596;9.960;2023-02-23T01:56:21;43.10;;;20.40;;
14342;SDS011;7255;53.596;9.960;2023-02-23T01:58:52;41.45;;;21.83;;
14342;SDS011;7255;53.596;9.960;2023-02-23T02:01:23;46.35;;;22.20;;
14342;SDS011;7255;53.596;9.960;2023-02-23T02:03:52;42.92;;;21.25;;
14342;SDS011;7255;53.596;9.960;2023-02-23T02:06:22;39.33;;;21.73;;
14342;SDS011;7255;53.596;9.960;2023-02-23T02:08:52;43.15;;;21.52;;
14342;SDS011;7255;53.596;9.960;2023-02-23T02:11:21;43.00;;;21.85;;
14342;SDS011;7255;53.596;9.960;2023-02-23T02:13:55;41.42;;;21.02;;
14342;SDS011;7255;53.596;9.960;2023-02-23T02:16:30;42.38;;;22.27;;
14342;SDS011;7255;53.596;9.960;2023-02-23T02:19:23;41.40;;;19.60;;
14342;SDS011;7255;53.596;9.960;2023-02-23T02:22:33;37.55;;;20.83;;
14342;SDS011;7255;53.596;9.960;2023-02-23T02:28:29;37.75;;;20.45;;
14342;SDS011;7255;53.596;9.960;2023-02-23T02:31:27;42.80;;;22.48;;
14342;SDS011;7255;53.596;9.960;2023-02-23T02:37:43;43.58;;;21.33;;
14342;SDS011;7255;53.596;9.960;2023-02-23T02:40:16;47.42;;;22.50;;
14342;SDS011;7255;53.596;9.960;2023-02-23T02:43:02;52.58;;;24.60;;
14342;SDS011;7255;53.596;9.960;2023-02-23T02:45:37;44.55;;;22.40;;
14342;SDS011;7255;53.596;9.960;2023-02-23T02:48:11;44.85;;;22.85;;
14342;SDS011;7255;53.596;9.960;2023-02-23T02:50:44;44.17;;;21.17;;
14342;SDS011;7255;53.596;9.960;2023-02-23T02:53:18;38.38;;;20.90;;
14342;SDS011;7255;53.596;9.960;2023-02-23T02:55:47;43.40;;;22.85;;
14342;SDS011;7255;53.596;9.960;2023-02-23T02:58:15;47.73;;;21.80;;
14342;SDS011;7255;53.596;9.960;2023-02-23T03:00:44;48.72;;;23.10;;
14342;SDS011;7255;53.596;9.960;2023-02-23T03:03:30;47.00;;;22.25;;
14342;SDS011;7255;53.596;9.960;2023-02-23T03:06:16;46.37;;;22.92;;
14342;SDS011;7255;53.596;9.960;2023-02-23T03:09:06;46.10;;;23.50;;
14342;SDS011;7255;53.596;9.960;2023-02-23T03:12:00;43.45;;;21.65;;
14342;SDS011;7255;53.596;9.960;2023-02-23T03:14:52;39.67;;;21.98;;
14342;SDS011;7255;53.596;9.960;2023-02-23T03:17:45;42.58;;;21.15;;
14342;SDS011;7255;53.596;9.960;2023-02-23T03:20:35;43.83;;;22.55;;
14342;SDS011;7255;53.596;9.960;2023-02-23T03:23:26;48.83;;;22.37;;
14342;SDS011;7255;53.596;9.960;2023-02-23T03:26:22;41.13;;;20.30;;
14342;SDS011;7255;53.596;9.960;2023-02-23T03:29:13;43.95;;;22.37;;
14342;SDS011;7255;53.596;9.960;2023-02-23T03:32:02;44.67;;;23.55;;
14342;SDS011;7255;53.596;9.960;2023-02-23T03:34:53;47.88;;;22.58;;
14342;SDS011;7255;53.596;9.960;2023-02-23T03:37:43;48.28;;;21.60;;
14342;SDS011;7255;53.596;9.960;2023-02-23T03:40:31;41.88;;;21.25;;
14342;SDS011;7255;53.596;9.960;2023-02-23T03:43:21;40.97;;;20.88;;
14342;SDS011;7255;53.596;9.960;2023-02-23T03:46:10;44.83;;;22.87;;
14342;SDS011;7255;53.596;9.960;2023-02-23T03:48:58;52.62;;;22.95;;
14342;SDS011;7255;53.596;9.960;2023-02-23T03:51:46;46.45;;;22.83;;
14342;SDS011;7255;53.596;9.960;2023-02-23T03:54:34;46.80;;;21.52;;
14342;SDS011;7255;53.596;9.960;2023-02-23T03:57:22;47.70;;;22.35;;
14342;SDS011;7255;53.596;9.960;2023-02-23T04:00:14;49.42;;;22.37;;
14342;SDS011;7255;53.596;9.960;2023-02-23T04:03:03;47.10;;;21.25;;
14342;SDS011;7255;53.596;9.960;2023-02-23T04:05:50;43.05;;;21.70;;
14342;SDS011;7255;53.596;9.960;2023-02-23T04:08:38;43.95;;;20.75;;
14342;SDS011;7255;53.596;9.960;2023-02-23T04:11:26;46.75;;;21.80;;
14342;SDS011;7255;53.596;9.960;2023-02-23T04:14:15;42.55;;;21.67;;
14342;SDS011;7255;53.596;9.960;2023-02-23T04:16:44;42.42;;;21.73;;
14342;SDS011;7255;53.596;9.960;2023-02-23T04:19:11;44.03;;;21.98;;
14342;SDS011;7255;53.596;9.960;2023-02-23T04:21:37;38.00;;;20.52;;
14342;SDS011;7255;53.596;9.960;2023-02-23T04:24:03;43.78;;;20.33;;
14342;SDS011;7255;53.596;9.960;2023-02-23T04:26:30;41.60;;;22.23;;
14342;SDS011;7255;53.596;9.960;2023-02-23T04:28:56;38.83;;;21.55;;
14342;SDS011;7255;53.596;9.960;2023-02-23T04:31:23;41.95;;;21.05;;
14342;SDS011;7255;53.596;9.960;2023-02-23T04:33:50;41.25;;;22.67;;
14342;SDS011;7255;53.596;9.960;2023-02-23T04:36:17;42.50;;;21.60;;
14342;SDS011;7255;53.596;9.960;2023-02-23T04:38:43;42.78;;;21.05;;
14342;SDS011;7255;53.596;9.960;2023-02-23T04:41:09;38.88;;;21.08;;
14342;SDS011;7255;53.596;9.960;2023-02-23T04:43:36;38.35;;;20.05;;
14342;SDS011;7255;53.596;9.960;2023-02-23T04:46:02;43.22;;;22.25;;
14342;SDS011;7255;53.596;9.960;2023-02-23T04:48:28;39.72;;;22.55;;
14342;SDS011;7255;53.596;9.960;2023-02-23T04:50:56;41.05;;;21.45;;
14342;SDS011;7255;53.596;9.960;2023-02-23T04:53:22;41.70;;;20.70;;
14342;SDS011;7255;53.596;9.960;2023-02-23T04:55:51;44.90;;;21.92;;
14342;SDS011;7255;53.596;9.960;2023-02-23T04:58:17;36.88;;;21.65;;
14342;SDS011;7255;53.596;9.960;2023-02-23T05:00:43;35.92;;;19.98;;
14342;SDS011;7255;53.596;9.960;2023-02-23T05:03:10;37.83;;;21.83;;
14342;SDS011;7255;53.596;9.960;2023-02-23T05:05:37;40.00;;;21.08;;
14342;SDS011;7255;53.596;9.960;2023-02-23T05:08:05;39.28;;;21.80;;
14342;SDS011;7255;53.596;9.960;2023-02-23T05:10:31;41.88;;;22.83;;
14342;SDS011;7255;53.596;9.960;2023-02-23T05:12:58;42.03;;;21.52;;
14342;SDS011;7255;53.596;9.960;2023-02-23T05:15:25;45.35;;;23.85;;
14342;SDS011;7255;53.596;9.960;2023-02-23T05:17:52;47.35;;;23.20;;
14342;SDS011;7255;53.596;9.960;2023-02-23T05:20:19;46.22;;;23.75;;
14342;SDS011;7255;53.596;9.960;2023-02-23T05:22:46;45.45;;;24.02;;
14342;SDS011;7255;53.596;9.960;2023-02-23T05:25:14;43.70;;;24.77;;
14342;SDS011;7255;53.596;9.960;2023-02-23T05:27:40;46.78;;;25.00;;
14342;SDS011;7255;53.596;9.960;2023-02-23T05:30:07;51.00;;;24.15;;
14342;SDS011;7255;53.596;9.960;2023-02-23T05:32:34;46.42;;;24.87;;
14342;SDS011;7255;53.596;9.960;2023-02-23T05:35:01;45.28;;;24.17;;
14342;SDS011;7255;53.596;9.960;2023-02-23T05:37:27;48.83;;;25.17;;
14342;SDS011;7255;53.596;9.960;2023-02-23T05:39:54;50.45;;;24.77;;
14342;SDS011;7255;53.596;9.960;2023-02-23T05:42:21;49.45;;;24.45;;
14342;SDS011;7255;53.596;9.960;2023-02-23T05:44:48;44.75;;;25.05;;
14342;SDS011;7255;53.596;9.960;2023-02-23T05:47:14;50.47;;;26.35;;
14342;SDS011;7255;53.596;9.960;2023-02-23T05:49:40;47.25;;;24.95;;
14342;SDS011;7255;53.596;9.960;2023-02-23T05:52:07;52.50;;;25.98;;
14342;SDS011;7255;53.596;9.960;2023-02-23T05:54:33;58.97;;;30.12;;
14342;SDS011;7255;53.596;9.960;2023-02-23T05:56:59;53.87;;;27.60;;
14342;SDS011;7255;53.596;9.960;2023-02-23T05:59:27;55.53;;;29.08;;
14342;SDS011;7255;53.596;9.960;2023-02-23T06:01:53;52.47;;;27.10;;
14342;SDS011;7255;53.596;9.960;2023-02-23T06:04:20;67.00;;;30.75;;
14342;SDS011;7255;53.596;9.960;2023-02-23T06:06:47;56.08;;;28.25;;
14342;SDS011;7255;53.596;9.960;2023-02-23T06:09:13;67.12;;;32.55;;
14342;SDS011;7255;53.596;9.960;2023-02-23T06:11:40;70.30;;;31.77;;
14342;SDS011;7255;53.596;9.960;2023-02-23T06:14:06;67.07;;;31.55;;
14342;SDS011;7255;53.596;9.960;2023-02-23T06:16:34;69.37;;;32.03;;
14342;SDS011;7255;53.596;9.960;2023-02-23T06:19:00;67.78;;;32.90;;
14342;SDS011;7255;53.596;9.960;2023-02-23T06:21:26;67.15;;;32.28;;
14342;SDS011;7255;53.596;9.960;2023-02-23T06:23:53;68.55;;;32.83;;
14342;SDS011;7255;53.596;9.960;2023-02-23T06:26:19;64.53;;;31.48;;
14342;SDS011;7255;53.596;9.960;2023-02-23T06:28:45;73.75;;;34.40;;
14342;SDS011;7255;53.596;9.960;2023-02-23T06:31:12;75.60;;;32.13;;
14342;SDS011;7255;53.596;9.960;2023-02-23T06:33:39;74.75;;;33.05;;
14342;SDS011;7255;53.596;9.960;2023-02-23T06:36:06;67.65;;;31.55;;
14342;SDS011;7255;53.596;9.960;2023-02-23T06:38:34;68.28;;;32.90;;
14342;SDS011;7255;53.596;9.960;2023-02-23T06:41:05;75.55;;;31.75;;
14342;SDS011;7255;53.596;9.960;2023-02-23T06:43:32;73.03;;;32.58;;
14342;SDS011;7255;53.596;9.960;2023-02-23T06:45:58;87.75;;;33.42;;
14342;SDS011;7255;53.596;9.960;2023-02-23T06:48:24;74.20;;;32.55;;
14342;SDS011;7255;53.596;9.960;2023-02-23T06:50:52;81.03;;;33.65;;
14342;SDS011;7255;53.596;9.960;2023-02-23T06:53:18;87.90;;;34.67;;
14342;SDS011;7255;53.596;9.960;2023-02-23T06:55:46;84.93;;;35.10;;
14342;SDS011;7255;53.596;9.960;2023-02-23T06:58:12;84.20;;;34.83;;
14342;SDS011;7255;53.596;9.960;2023-02-23T07:00:38;90.40;;;35.88;;
14342;SDS011;7255;53.596;9.960;2023-02-23T07:03:06;88.28;;;35.42;;
14342;SDS011;7255;53.596;9.960;2023-02-23T07:05:33;82.43;;;35.30;;
14342;SDS011;7255;53.596;9.960;2023-02-23T07:08:01;79.03;;;33.53;;
14342;SDS011;7255;53.596;9.960;2023-02-23T07:10:28;78.55;;;35.58;;
14342;SDS011;7255;53.596;9.960;2023-02-23T07:12:54;87.05;;;35.90;;
14342;SDS011;7255;53.596;9.960;2023-02-23T07:15:21;88.53;;;34.22;;
14342;SDS011;7255;53.596;9.960;2023-02-23T07:17:47;88.03;;;33.53;;
14342;SDS011;7255;53.596;9.960;2023-02-23T07:20:15;82.90;;;34.25;;
14342;SDS011;7255;53.596;9.960;2023-02-23T07:22:42;85.18;;;35.95;;
14342;SDS011;7255;53.596;9.960;2023-02-23T07:25:09;84.95;;;34.80;;
14342;SDS011;7255;53.596;9.960;2023-02-23T07:27:36;88.75;;;35.33;;
14342;SDS011;7255;53.596;9.960;2023-02-23T07:30:03;80.25;;;34.40;;
14342;SDS011;7255;53.596;9.960;2023-02-23T07:32:30;80.12;;;33.85;;
14342;SDS011;7255;53.596;9.960;2023-02-23T07:34:56;85.38;;;36.28;;
14342;SDS011;7255;53.596;9.960;2023-02-23T07:37:22;79.45;;;33.17;;
14342;SDS011;7255;53.596;9.960;2023-02-23T07:39:49;79.78;;;34.30;;
14342;SDS011;7255;53.596;9.960;2023-02-23T07:42:16;80.12;;;34.38;;
14342;SDS011;7255;53.596;9.960;2023-02-23T07:44:43;79.70;;;34.60;;
14342;SDS011;7255;53.596;9.960;2023-02-23T07:47:09;79.50;;;33.55;;
14342;SDS011;7255;53.596;9.960;2023-02-23T07:49:36;82.72;;;33.70;;
14342;SDS011;7255;53.596;9.960;2023-02-23T07:52:03;72.55;;;32.60;;
14342;SDS011;7255;53.596;9.960;2023-02-23T07:54:29;88.07;;;34.15;;
14342;SDS011;7255;53.596;9.960;2023-02-23T07:56:56;74.60;;;31.98;;
14342;SDS011;7255;53.596;9.960;2023-02-23T07:59:24;82.12;;;33.42;;
14342;SDS011;7255;53.596;9.960;2023-02-23T08:01:51;74.68;;;32.67;;
14342;SDS011;7255;53.596;9.960;2023-02-23T08:04:17;66.75;;;30.50;;
14342;SDS011;7255;53.596;9.960;2023-02-23T08:06:44;69.35;;;30.83;;
14342;SDS011;7255;53.596;9.960;2023-02-23T08:09:10;67.40;;;31.90;;
14342;SDS011;7255;53.596;9.960;2023-02-23T08:11:37;74.97;;;30.45;;
14342;SDS011;7255;53.596;9.960;2023-02-23T08:14:03;84.03;;;31.98;;
14342;SDS011;7255;53.596;9.960;2023-02-23T08:16:31;73.15;;;32.72;;
14342;SDS011;7255;53.596;9.960;2023-02-23T08:18:59;74.43;;;32.33;;
14342;SDS011;7255;53.596;9.960;2023-02-23T08:21:26;68.00;;;30.48;;
14342;SDS011;7255;53.596;9.960;2023-02-23T08:23:53;73.75;;;32.92;;
14342;SDS011;7255;53.596;9.960;2023-02-23T08:26:19;75.43;;;32.72;;
14342;SDS011;7255;53.596;9.960;2023-02-23T08:28:46;73.80;;;33.33;;
14342;SDS011;7255;53.596;9.960;2023-02-23T08:31:12;77.95;;;32.90;;
14342;SDS011;7255;53.596;9.960;2023-02-23T08:33:41;66.93;;;30.70;;
14342;SDS011;7255;53.596;9.960;2023-02-23T08:36:08;77.82;;;33.95;;
14342;SDS011;7255;53.596;9.960;2023-02-23T08:38:35;73.30;;;33.17;;
14342;SDS011;7255;53.596;9.960;2023-02-23T08:41:01;74.97;;;32.83;;
14342;SDS011;7255;53.596;9.960;2023-02-23T08:43:28;75.78;;;33.55;;
14342;SDS011;7255;53.596;9.960;2023-02-23T08:45:55;77.87;;;34.38;;
14342;SDS011;7255;53.596;9.960;2023-02-23T08:48:21;74.72;;;32.65;;
14342;SDS011;7255;53.596;9.960;2023-02-23T08:50:49;74.32;;;32.58;;
14342;SDS011;7255;53.596;9.960;2023-02-23T08:53:20;66.32;;;29.35;;
14342;SDS011;7255;53.596;9.960;2023-02-23T08:55:47;76.12;;;33.42;;
14342;SDS011;7255;53.596;9.960;2023-02-23T08:58:13;74.55;;;30.77;;
14342;SDS011;7255;53.596;9.960;2023-02-23T09:00:39;67.87;;;31.67;;
14342;SDS011;7255;53.596;9.960;2023-02-23T09:03:05;66.00;;;31.08;;
14342;SDS011;7255;53.596;9.960;2023-02-23T09:05:32;64.25;;;31.70;;
14342;SDS011;7255;53.596;9.960;2023-02-23T09:08:03;73.50;;;32.45;;
14342;SDS011;7255;53.596;9.960;2023-02-23T09:10:31;68.22;;;32.90;;
14342;SDS011;7255;53.596;9.960;2023-02-23T09:12:57;75.80;;;36.25;;
14342;SDS011;7255;53.596;9.960;2023-02-23T09:15:23;77.07;;;35.65;;
14342;SDS011;7255;53.596;9.960;2023-02-23T09:17:50;75.57;;;36.25;;
14342;SDS011;7255;53.596;9.960;2023-02-23T09:20:16;78.47;;;35.42;;
14342;SDS011;7255;53.596;9.960;2023-02-23T09:22:43;79.97;;;38.20;;
14342;SDS011;7255;53.596;9.960;2023-02-23T09:25:13;90.25;;;39.42;;
14342;SDS011;7255;53.596;9.960;2023-02-23T09:27:43;88.28;;;38.40;;
14342;SDS011;7255;53.596;9.960;2023-02-23T09:30:09;89.53;;;40.03;;
14342;SDS011;7255;53.596;9.960;2023-02-23T09:32:42;88.45;;;40.33;;
14342;SDS011;7255;53.596;9.960;2023-02-23T09:35:09;90.00;;;38.65;;
14342;SDS011;7255;53.596;9.960;2023-02-23T09:37:35;100.35;;;41.97;;
14342;SDS011;7255;53.596;9.960;2023-02-23T09:40:02;85.03;;;40.58;;
14342;SDS011;7255;53.596;9.960;2023-02-23T09:42:33;96.05;;;42.10;;
14342;SDS011;7255;53.596;9.960;2023-02-23T09:45:09;110.40;;;43.42;;
14342;SDS011;7255;53.596;9.960;2023-02-23T09:47:45;136.48;;;48.63;;
14342;SDS011;7255;53.596;9.960;2023-02-23T09:50:19;139.82;;;47.65;;
14342;SDS011;7255;53.596;9.960;2023-02-23T09:52:50;149.25;;;48.25;;
14342;SDS011;7255;53.596;9.960;2023-02-23T09:55:23;149.65;;;51.00;;
14342;SDS011;7255;53.596;9.960;2023-02-23T09:57:53;136.02;;;48.05;;
14342;SDS011;7255;53.596;9.960;2023-02-23T10:00:24;131.45;;;45.80;;
14342;SDS011;7255;53.596;9.960;2023-02-23T10:02:59;151.98;;;48.58;;
14342;SDS011;7255;53.596;9.960;2023-02-23T10:05:37;141.35;;;49.30;;
14342;SDS011;7255;53.596;9.960;2023-02-23T10:08:11;136.65;;;46.47;;
14342;SDS011;7255;53.596;9.960;2023-02-23T10:10:44;132.68;;;49.63;;
14342;SDS011;7255;53.596;9.960;2023-02-23T10:13:17;135.85;;;47.47;;
14342;SDS011;7255;53.596;9.960;2023-02-23T10:15:48;144.32;;;49.45;;
14342;SDS011;7255;53.596;9.960;2023-02-23T10:18:22;142.32;;;48.97;;
14342;SDS011;7255;53.596;9.960;2023-02-23T10:20:57;128.55;;;45.17;;
14342;SDS011;7255;53.596;9.960;2023-02-23T10:23:28;136.70;;;45.88;;
14342;SDS011;7255;53.596;9.960;2023-02-23T10:25:58;131.15;;;46.85;;
14342;SDS011;7255;53.596;9.960;2023-02-23T10:28:29;130.90;;;45.45;;
14342;SDS011;7255;53.596;9.960;2023-02-23T10:30:59;118.32;;;43.40;;
14342;SDS011;7255;53.596;9.960;2023-02-23T10:33:30;121.43;;;42.50;;
14342;SDS011;7255;53.596;9.960;2023-02-23T10:36:01;126.22;;;44.45;;
14342;SDS011;7255;53.596;9.960;2023-02-23T10:38:37;124.72;;;42.70;;
14342;SDS011;7255;53.596;9.960;2023-02-23T10:41:04;124.47;;;45.08;;
14342;SDS011;7255;53.596;9.960;2023-02-23T10:43:32;122.78;;;41.90;;
14342;SDS011;7255;53.596;9.960;2023-02-23T10:45:59;110.22;;;43.55;;
14342;SDS011;7255;53.596;9.960;2023-02-23T10:48:26;124.18;;;42.58;;
14342;SDS011;7255;53.596;9.960;2023-02-23T10:50:56;113.28;;;39.83;;
14342;SDS011;7255;53.596;9.960;2023-02-23T10:53:29;107.47;;;39.38;;
14342;SDS011;7255;53.596;9.960;2023-02-23T10:56:00;106.95;;;39.78;;
14342;SDS011;7255;53.596;9.960;2023-02-23T10:58:30;102.60;;;40.00;;
14342;SDS011;7255;53.596;9.960;2023-02-23T11:01:05;98.20;;;37.95;;
14342;SDS011;7255;53.596;9.960;2023-02-23T11:03:32;110.40;;;39.38;;
14342;SDS011;7255;53.596;9.960;2023-02-23T11:06:02;96.20;;;36.58;;
14342;SDS011;7255;53.596;9.960;2023-02-23T11:08:30;93.95;;;36.65;;
14342;SDS011;7255;53.596;9.960;2023-02-23T11:11:03;83.53;;;33.70;;
14342;SDS011;7255;53.596;9.960;2023-02-23T11:13:33;81.37;;;31.92;;
14342;SDS011;7255;53.596;9.960;2023-02-23T11:16:02;90.38;;;34.15;;
14342;SDS011;7255;53.596;9.960;2023-02-23T11:18:34;80.55;;;32.85;;
14342;SDS011;7255;53.596;9.960;2023-02-23T11:21:01;84.95;;;33.30;;
14342;SDS011;7255;53.596;9.960;2023-02-23T11:23:28;77.68;;;32.97;;
14342;SDS011;7255;53.596;9.960;2023-02-23T11:25:57;81.78;;;32.67;;
14342;SDS011;7255;53.596;9.960;2023-02-23T11:28:26;71.78;;;31.83;;
14342;SDS011;7255;53.596;9.960;2023-02-23T11:30:57;76.28;;;30.75;;
14342;SDS011;7255;53.596;9.960;2023-02-23T11:33:29;83.20;;;32.97;;
14342;SDS011;7255;53.596;9.960;2023-02-23T11:36:11;77.40;;;32.22;;
14342;SDS011;7255;53.596;9.960;2023-02-23T11:38:40;71.62;;;30.67;;
14342;SDS011;7255;53.596;9.960;2023-02-23T11:41:16;76.65;;;31.25;;
14342;SDS011;7255;53.596;9.960;2023-02-23T11:43:46;68.12;;;30.55;;
14342;SDS011;7255;53.596;9.960;2023-02-23T11:46:13;77.07;;;31.67;;
14342;SDS011;7255;53.596;9.960;2023-02-23T11:48:42;76.37;;;31.25;;
14342;SDS011;7255;53.596;9.960;2023-02-23T11:51:20;72.85;;;30.88;;
14342;SDS011;7255;53.596;9.960;2023-02-23T11:53:48;69.57;;;30.50;;
14342;SDS011;7255;53.596;9.960;2023-02-23T11:56:16;60.15;;;27.85;;
14342;SDS011;7255;53.596;9.960;2023-02-23T11:58:47;69.20;;;29.98;;
14342;SDS011;7255;53.596;9.960;2023-02-23T12:01:15;69.62;;;30.40;;
14342;SDS011;7255;53.596;9.960;2023-02-23T12:03:49;67.07;;;29.25;;
14342;SDS011;7255;53.596;9.960;2023-02-23T12:06:25;66.32;;;29.92;;
14342;SDS011;7255;53.596;9.960;2023-02-23T12:08:55;68.05;;;28.52;;
14342;SDS011;7255;53.596;9.960;2023-02-23T12:11:28;68.47;;;28.73;;
14342;SDS011;7255;53.596;9.960;2023-02-23T12:14:00;61.92;;;26.75;;
14342;SDS011;7255;53.596;9.960;2023-02-23T12:16:31;62.00;;;27.67;;
14342;SDS011;7255;53.596;9.960;2023-02-23T12:19:05;64.22;;;27.77;;
14342;SDS011;7255;53.596;9.960;2023-02-23T12:21:42;60.40;;;26.50;;
14342;SDS011;7255;53.596;9.960;2023-02-23T12:24:14;63.63;;;28.87;;
14342;SDS011;7255;53.596;9.960;2023-02-23T12:26:45;58.87;;;27.23;;
14342;SDS011;7255;53.596;9.960;2023-02-23T12:29:18;59.10;;;27.25;;
14342;SDS011;7255;53.596;9.960;2023-02-23T12:31:48;62.30;;;27.60;;
14342;SDS011;7255;53.596;9.960;2023-02-23T12:34:21;66.15;;;27.33;;
14342;SDS011;7255;53.596;9.960;2023-02-23T12:36:54;60.92;;;27.83;;
14342;SDS011;7255;53.596;9.960;2023-02-23T12:39:25;73.43;;;30.25;;
14342;SDS011;7255;53.596;9.960;2023-02-23T12:41:58;62.85;;;28.15;;
14342;SDS011;7255;53.596;9.960;2023-02-23T12:44:31;62.08;;;27.52;;
14342;SDS011;7255;53.596;9.960;2023-02-23T12:47:06;58.67;;;26.62;;
14342;SDS011;7255;53.596;9.960;2023-02-23T12:49:43;60.17;;;27.62;;
14342;SDS011;7255;53.596;9.960;2023-02-23T12:52:15;56.40;;;25.20;;
14342;SDS011;7255;53.596;9.960;2023-02-23T12:54:44;66.35;;;29.67;;
14342;SDS011;7255;53.596;9.960;2023-02-23T12:57:13;59.20;;;26.80;;
14342;SDS011;7255;53.596;9.960;2023-02-23T12:59:51;60.20;;;28.40;;
14342;SDS011;7255;53.596;9.960;2023-02-23T13:02:45;58.92;;;26.87;;
14342;SDS011;7255;53.596;9.960;2023-02-23T13:05:16;62.53;;;27.45;;
14342;SDS011;7255;53.596;9.960;2023-02-23T13:07:51;62.72;;;27.52;;
14342;SDS011;7255;53.596;9.960;2023-02-23T13:10:28;68.10;;;27.35;;
14342;SDS011;7255;53.596;9.960;2023-02-23T13:13:03;59.65;;;25.02;;
14342;SDS011;7255;53.596;9.960;2023-02-23T13:15:53;58.92;;;26.50;;
14342;SDS011;7255;53.596;9.960;2023-02-23T13:18:26;57.67;;;23.90;;
14342;SDS011;7255;53.596;9.960;2023-02-23T13:21:00;55.42;;;23.65;;
14342;SDS011;7255;53.596;9.960;2023-02-23T13:23:32;58.35;;;25.80;;
14342;SDS011;7255;53.596;9.960;2023-02-23T13:26:03;57.13;;;23.65;;
14342;SDS011;7255;53.596;9.960;2023-02-23T13:28:39;48.75;;;22.08;;
14342;SDS011;7255;53.596;9.960;2023-02-23T13:31:17;51.85;;;23.02;;
14342;SDS011;7255;53.596;9.960;2023-02-23T13:33:47;48.85;;;24.50;;
14342;SDS011;7255;53.596;9.960;2023-02-23T13:36:16;52.15;;;25.05;;
14342;SDS011;7255;53.596;9.960;2023-02-23T13:38:45;53.38;;;23.83;;
14342;SDS011;7255;53.596;9.960;2023-02-23T13:41:32;46.70;;;21.23;;
14342;SDS011;7255;53.596;9.960;2023-02-23T13:44:06;47.33;;;22.40;;
14342;SDS011;7255;53.596;9.960;2023-02-23T13:46:44;44.63;;;20.95;;
14342;SDS011;7255;53.596;9.960;2023-02-23T13:49:20;45.67;;;21.30;;
14342;SDS011;7255;53.596;9.960;2023-02-23T13:51:58;48.35;;;21.60;;
14342;SDS011;7255;53.596;9.960;2023-02-23T13:54:30;48.05;;;21.45;;
14342;SDS011;7255;53.596;9.960;2023-02-23T13:56:58;43.78;;;21.37;;
14342;SDS011;7255;53.596;9.960;2023-02-23T13:59:27;43.70;;;19.87;;
14342;SDS011;7255;53.596;9.960;2023-02-23T14:01:57;47.47;;;21.00;;
14342;SDS011;7255;53.596;9.960;2023-02-23T14:04:27;39.78;;;19.12;;
14342;SDS011;7255;53.596;9.960;2023-02-23T14:07:01;45.08;;;18.95;;
14342;SDS011;7255;53.596;9.960;2023-02-23T14:09:37;39.50;;;18.90;;
14342;SDS011;7255;53.596;9.960;2023-02-23T14:12:15;39.63;;;17.42;;
14342;SDS011;7255;53.596;9.960;2023-02-23T14:14:48;37.15;;;17.98;;
14342;SDS011;7255;53.596;9.960;2023-02-23T14:23:17;35.13;;;16.58;;
14342;SDS011;7255;53.596;9.960;2023-02-23T14:26:09;33.22;;;15.05;;
14342;SDS011;7255;53.596;9.960;2023-02-23T14:28:39;31.37;;;15.73;;
14342;SDS011;7255;53.596;9.960;2023-02-23T14:31:15;35.05;;;16.30;;
14342;SDS011;7255;53.596;9.960;2023-02-23T14:33:48;30.37;;;14.57;;
14342;SDS011;7255;53.596;9.960;2023-02-23T14:36:26;29.27;;;13.98;;
14342;SDS011;7255;53.596;9.960;2023-02-23T14:39:00;29.25;;;13.70;;
14342;SDS011;7255;53.596;9.960;2023-02-23T14:41:30;24.92;;;13.15;;
14342;SDS011;7255;53.596;9.960;2023-02-23T14:44:05;27.20;;;12.37;;
14342;SDS011;7255;53.596;9.960;2023-02-23T14:46:37;25.80;;;13.48;;
14342;SDS011;7255;53.596;9.960;2023-02-23T14:49:05;25.45;;;12.60;;
14342;SDS011;7255;53.596;9.960;2023-02-23T14:51:35;28.38;;;13.25;;
14342;SDS011;7255;53.596;9.960;2023-02-23T14:54:10;27.65;;;13.02;;
14342;SDS011;7255;53.596;9.960;2023-02-23T14:56:46;27.48;;;13.07;;
14342;SDS011;7255;53.596;9.960;2023-02-23T14:59:16;27.48;;;12.52;;
14342;SDS011;7255;53.596;9.960;2023-02-23T15:01:45;26.62;;;13.52;;
14342;SDS011;7255;53.596;9.960;2023-02-23T15:04:13;26.17;;;12.35;;
14342;SDS011;7255;53.596;9.960;2023-02-23T15:06:41;26.12;;;13.30;;
14342;SDS011;7255;53.596;9.960;2023-02-23T15:09:13;27.62;;;11.85;;